Time;durP1;ratioP1;P1;durP2;ratioP2;P2;SDS_P1;SDS_P2;PMS_P1;PMS_P2;Temp;Humidity;BMP_temperature;BMP_pressure;BME280_temperature;BME280_humidity;BME280_pressure;Samples;Min_cycle;Max_cycle;Signal;HPM_P1;HPM_P2
2024/01/24 00:01:26;;;;;;;0.80;0.50;;;14.70;99.90;;;;;;4250133;27;20073;-56
2024/01/24 00:03:29;;;;;;;0.82;0.47;;;14.70;99.90;;;;;;4250291;27;20069;-57
2024/01/24 00:05:31;;;;;;;0.80;0.45;;;14.70;99.90;;;;;;4249955;27;20047;-56
2024/01/24 00:07:33;;;;;;;0.70;0.60;;;14.70;99.90;;;;;;4250189;27;20078;-58
2024/01/24 00:09:35;;;;;;;1.15;0.50;;;14.60;99.90;;;;;;4250264;27;20047;-56
2024/01/24 00:11:37;;;;;;;1.00;0.50;;;14.70;99.90;;;;;;4249764;27;20094;-59
2024/01/24 00:13:39;;;;;;;0.77;0.40;;;14.70;99.90;;;;;;4249650;27;20483;-55
2024/01/24 00:15:42;;;;;;;2.17;0.57;;;14.60;99.90;;;;;;4249829;27;20067;-56
2024/01/24 00:17:45;;;;;;;0.65;0.38;;;14.60;99.90;;;;;;4249841;27;20228;-56
2024/01/24 00:19:47;;;;;;;1.50;0.40;;;14.70;99.90;;;;;;4249807;27;20074;-56
2024/01/24 00:21:49;;;;;;;0.57;0.40;;;14.70;99.90;;;;;;4251476;27;20043;-61
2024/01/24 00:23:51;;;;;;;1.02;0.50;;;14.60;99.90;;;;;;4251317;27;20043;-57
2024/01/24 00:25:53;;;;;;;2.17;0.40;;;14.70;99.90;;;;;;4262247;27;20397;-57
2024/01/24 00:27:55;;;;;;;0.32;0.25;;;14.70;99.90;;;;;;4267250;27;20046;-57
2024/01/24 00:29:58;;;;;;;1.15;0.40;;;14.70;99.90;;;;;;4266705;27;20059;-56
2024/01/24 00:31:59;;;;;;;0.95;0.55;;;14.70;99.90;;;;;;4266877;27;20073;-56
2024/01/24 00:34:03;;;;;;;1.35;0.43;;;14.70;99.90;;;;;;4266853;27;20103;-58
2024/01/24 00:36:06;;;;;;;1.60;0.95;;;14.70;99.90;;;;;;4249444;27;20043;-56
2024/01/24 00:38:08;;;;;;;1.02;0.63;;;14.70;99.90;;;;;;4249622;27;20041;-56
2024/01/24 00:40:10;;;;;;;1.98;0.80;;;14.70;99.90;;;;;;4249435;27;20043;-56
2024/01/24 00:42:13;;;;;;;0.68;0.45;;;14.70;99.90;;;;;;4249461;27;20152;-58
2024/01/24 00:44:15;;;;;;;1.50;0.40;;;14.80;99.90;;;;;;4249128;27;20051;-56
2024/01/24 00:46:17;;;;;;;0.47;0.43;;;14.70;99.90;;;;;;4249551;27;20039;-56
2024/01/24 00:48:19;;;;;;;1.08;0.20;;;14.70;99.90;;;;;;4249335;27;20046;-58
2024/01/24 00:50:22;;;;;;;0.85;0.30;;;14.70;99.90;;;;;;4249104;27;20553;-58
2024/01/24 00:52:24;;;;;;;2.63;0.30;;;14.70;99.90;;;;;;4249120;27;20122;-58
2024/01/24 00:54:26;;;;;;;0.57;0.40;;;14.70;99.90;;;;;;4249217;27;20039;-56
2024/01/24 00:56:28;;;;;;;0.40;0.38;;;14.70;99.90;;;;;;4248987;27;20051;-60
2024/01/24 00:58:30;;;;;;;1.65;0.40;;;14.70;99.90;;;;;;4249207;27;20051;-59
2024/01/24 01:00:32;;;;;;;0.30;0.20;;;14.70;99.90;;;;;;4249165;27;20039;-58
2024/01/24 01:02:34;;;;;;;1.65;0.30;;;14.70;99.90;;;;;;4249181;27;20446;-59
2024/01/24 01:04:36;;;;;;;0.40;0.32;;;14.80;99.90;;;;;;4249242;27;20070;-56
2024/01/24 01:06:42;;;;;;;0.85;0.40;;;14.80;99.90;;;;;;4249177;27;20127;-59
2024/01/24 01:08:44;;;;;;;1.27;0.30;;;14.70;99.90;;;;;;4248992;27;20122;-56
2024/01/24 01:10:46;;;;;;;0.60;0.40;;;14.70;99.90;;;;;;4230801;28;20127;-56
2024/01/24 01:12:48;;;;;;;0.75;0.30;;;14.70;99.90;;;;;;4230227;28;20434;-59
2024/01/24 01:14:50;;;;;;;0.65;0.10;;;14.70;99.90;;;;;;4248683;27;20047;-56
2024/01/24 01:16:52;;;;;;;0.90;0.32;;;14.70;99.90;;;;;;4248879;27;20047;-58
2024/01/24 01:18:55;;;;;;;0.85;0.10;;;14.60;99.90;;;;;;4248686;27;20043;-59
2024/01/24 01:20:57;;;;;;;1.05;0.30;;;14.60;99.90;;;;;;4248866;27;20387;-58
2024/01/24 01:23:01;;;;;;;0.28;0.20;;;14.60;99.90;;;;;;4248807;27;20096;-58
2024/01/24 01:25:04;;;;;;;0.63;0.30;;;14.60;99.90;;;;;;4253836;27;20045;-58
2024/01/24 01:27:06;;;;;;;0.43;0.30;;;14.50;99.90;;;;;;4265536;27;20043;-58
2024/01/24 01:29:08;;;;;;;0.77;0.38;;;14.50;99.90;;;;;;4265827;27;20069;-59
2024/01/24 01:31:10;;;;;;;0.52;0.30;;;14.50;99.90;;;;;;4265995;27;20125;-59
2024/01/24 01:33:12;;;;;;;1.30;0.30;;;14.50;99.90;;;;;;4265997;27;20046;-58
2024/01/24 01:35:14;;;;;;;0.85;0.28;;;14.50;99.90;;;;;;4255652;27;20039;-58
2024/01/24 01:37:16;;;;;;;0.95;0.40;;;14.40;99.90;;;;;;4248654;27;20478;-58
2024/01/24 01:39:20;;;;;;;2.25;0.30;;;14.40;99.90;;;;;;4248256;27;20039;-59
2024/01/24 01:41:22;;;;;;;0.55;0.30;;;14.40;99.90;;;;;;4229947;28;20073;-59
2024/01/24 01:43:24;;;;;;;1.88;0.40;;;14.50;99.90;;;;;;4247803;27;20383;-58
2024/01/24 01:45:26;;;;;;;1.27;0.40;;;14.40;99.90;;;;;;4248360;27;20043;-59
2024/01/24 01:47:28;;;;;;;0.75;0.30;;;14.50;99.90;;;;;;4248323;27;20466;-58
2024/01/24 01:49:30;;;;;;;1.15;0.30;;;14.50;99.90;;;;;;4248222;27;20039;-58
2024/01/24 01:51:33;;;;;;;0.10;0.10;;;14.50;99.90;;;;;;4229946;28;20051;-58
2024/01/24 01:53:38;;;;;;;0.65;0.30;;;14.50;99.90;;;;;;4248214;27;20421;-59
2024/01/24 01:55:42;;;;;;;0.73;0.32;;;14.50;99.90;;;;;;4247873;27;20043;-59
2024/01/24 01:57:47;;;;;;;0.50;0.30;;;14.50;99.90;;;;;;4248302;27;20070;-58
2024/01/24 01:59:49;;;;;;;0.15;0.15;;;14.40;99.90;;;;;;4247983;27;20078;-59
2024/01/24 02:01:53;;;;;;;0.45;0.40;;;14.50;99.90;;;;;;4248405;27;20120;-59
2024/01/24 02:03:55;;;;;;;0.93;0.30;;;14.50;99.90;;;;;;4248115;27;20174;-58
2024/01/24 02:05:57;;;;;;;0.70;0.20;;;14.50;99.90;;;;;;4248211;27;20104;-58
2024/01/24 02:08:00;;;;;;;0.40;0.25;;;14.50;99.90;;;;;;4248102;27;20486;-58
2024/01/24 02:10:02;;;;;;;0.98;0.20;;;14.50;99.90;;;;;;4247812;27;20047;-59
2024/01/24 02:12:06;;;;;;;0.30;0.30;;;14.40;99.90;;;;;;4247927;27;20051;-59
2024/01/24 02:14:08;;;;;;;1.77;0.25;;;14.50;99.90;;;;;;4248252;27;20047;-58
2024/01/24 02:16:13;;;;;;;0.70;0.30;;;14.50;99.90;;;;;;4247886;27;20047;-58
2024/01/24 02:18:20;;;;;;;0.82;0.30;;;14.50;99.90;;;;;;4248130;27;20128;-59
2024/01/24 02:20:23;;;;;;;0.25;0.15;;;14.50;99.90;;;;;;4247904;27;20087;-59
2024/01/24 02:22:25;;;;;;;1.00;0.17;;;14.50;99.90;;;;;;4248186;27;20117;-58
2024/01/24 02:24:29;;;;;;;0.10;0.10;;;14.50;99.90;;;;;;4229463;28;20081;-59
2024/01/24 02:26:31;;;;;;;2.92;0.32;;;14.50;99.90;;;;;;4265138;27;20095;-59
2024/01/24 02:28:33;;;;;;;0.45;0.20;;;14.50;99.90;;;;;;4265375;27;20047;-58
2024/01/24 02:30:35;;;;;;;0.32;0.20;;;14.50;99.90;;;;;;4265255;27;20091;-59
2024/01/24 02:32:38;;;;;;;0.30;0.20;;;14.50;99.90;;;;;;4265538;27;20038;-64
2024/01/24 02:34:42;;;;;;;0.10;0.05;;;14.50;99.90;;;;;;4260604;27;20382;-65
2024/01/24 02:36:44;;;;;;;0.22;0.20;;;14.60;99.90;;;;;;4247825;27;20122;-59
2024/01/24 02:38:46;;;;;;;0.85;0.17;;;14.60;99.90;;;;;;4247621;27;20494;-58
2024/01/24 02:40:49;;;;;;;1.13;0.35;;;14.60;99.90;;;;;;4247799;28;20058;-58
2024/01/24 02:42:51;;;;;;;0.30;0.30;;;14.60;99.90;;;;;;4247542;28;20047;-58
2024/01/24 02:44:53;;;;;;;1.95;0.32;;;14.70;99.90;;;;;;4248046;28;20051;-65
2024/01/24 02:46:56;;;;;;;0.30;0.20;;;14.50;99.90;;;;;;4248115;28;20051;-58
2024/01/24 02:48:58;;;;;;;0.65;0.22;;;14.60;99.90;;;;;;4248302;28;20050;-58
2024/01/24 02:51:00;;;;;;;0.75;0.15;;;14.60;99.90;;;;;;4247422;28;20079;-58
2024/01/24 02:53:02;;;;;;;8.80;0.60;;;14.60;99.90;;;;;;4229516;28;20557;-58
2024/01/24 02:55:06;;;;;;;0.30;0.20;;;14.60;99.90;;;;;;4247614;27;20049;-59
2024/01/24 02:57:09;;;;;;;1.20;0.17;;;14.60;99.90;;;;;;4251472;27;20470;-60
2024/01/24 02:59:11;;;;;;;1.55;0.25;;;14.60;99.90;;;;;;4251270;27;20047;-57
2024/01/24 03:01:15;;;;;;;2.38;0.47;;;14.60;99.90;;;;;;4251259;27;20043;-58
2024/01/24 03:03:18;;;;;;;0.57;0.20;;;14.60;99.90;;;;;;4250980;27;20108;-59
2024/01/24 03:05:20;;;;;;;0.20;0.20;;;14.60;99.90;;;;;;4250993;27;20047;-59
2024/01/24 03:07:22;;;;;;;1.17;0.20;;;14.60;99.90;;;;;;4251170;27;20126;-59
2024/01/24 03:09:24;;;;;;;0.70;0.17;;;14.60;99.90;;;;;;4250679;27;20047;-58
2024/01/24 03:11:26;;;;;;;0.40;0.20;;;14.60;99.90;;;;;;4251007;27;20051;-59
2024/01/24 03:13:29;;;;;;;1.45;0.20;;;14.60;99.90;;;;;;4250899;27;20046;-58
2024/01/24 03:15:31;;;;;;;1.05;0.20;;;14.60;99.90;;;;;;4250976;27;20555;-62
2024/01/24 03:17:34;;;;;;;0.47;0.20;;;14.60;99.90;;;;;;4251422;27;20061;-61
2024/01/24 03:19:36;;;;;;;0.20;0.10;;;14.70;99.90;;;;;;4251909;27;20130;-58
2024/01/24 03:21:38;;;;;;;0.75;0.32;;;14.60;99.90;;;;;;4251061;27;20126;-60
2024/01/24 03:23:40;;;;;;;0.55;0.10;;;14.70;99.90;;;;;;4250560;27;20043;-59
2024/01/24 03:25:42;;;;;;;0.52;0.30;;;14.70;99.90;;;;;;4261268;27;20051;-59
2024/01/24 03:27:44;;;;;;;0.55;0.10;;;14.70;99.90;;;;;;4267896;27;20047;-58
2024/01/24 03:29:48;;;;;;;0.45;0.17;;;14.70;99.90;;;;;;4267977;27;20096;-59
2024/01/24 03:31:50;;;;;;;0.20;0.10;;;14.70;99.90;;;;;;4268284;27;20050;-58
2024/01/24 03:33:52;;;;;;;0.90;0.20;;;14.70;99.90;;;;;;4268999;27;20042;-60
2024/01/24 03:35:55;;;;;;;0.63;0.20;;;14.70;99.90;;;;;;4254290;27;20050;-61
2024/01/24 03:37:57;;;;;;;0.32;0.17;;;14.70;99.90;;;;;;4250460;27;20054;-59
2024/01/24 03:39:59;;;;;;;0.17;0.10;;;14.70;99.90;;;;;;4250838;27;20481;-63
2024/01/24 03:42:02;;;;;;;0.75;0.30;;;14.70;99.90;;;;;;4252153;27;20047;-66
2024/01/24 03:44:05;;;;;;;0.95;0.20;;;14.70;99.90;;;;;;4254568;27;20043;-67
2024/01/24 03:46:08;;;;;;;2.05;0.10;;;14.80;99.90;;;;;;4252313;27;20482;-62
2024/01/24 03:48:10;;;;;;;0.65;0.20;;;14.80;99.90;;;;;;4250791;27;20399;-59
2024/01/24 03:50:13;;;;;;;0.30;0.15;;;14.80;99.90;;;;;;4250354;27;20043;-60
2024/01/24 03:52:15;;;;;;;0.10;0.10;;;14.70;99.90;;;;;;4250211;27;20043;-57
2024/01/24 03:54:17;;;;;;;0.20;0.17;;;14.70;99.90;;;;;;4250187;27;20413;-57
2024/01/24 03:56:19;;;;;;;0.43;0.15;;;14.80;99.90;;;;;;4249983;27;20047;-56
2024/01/24 03:58:21;;;;;;;1.02;0.20;;;14.80;99.90;;;;;;4250025;27;20047;-59
2024/01/24 04:00:24;;;;;;;0.88;0.30;;;14.80;99.90;;;;;;4250248;27;20268;-59
2024/01/24 04:02:27;;;;;;;0.10;0.10;;;14.80;99.90;;;;;;4250244;27;20463;-57
2024/01/24 04:04:29;;;;;;;0.40;0.17;;;14.70;99.90;;;;;;4249967;27;20043;-59
2024/01/24 04:06:32;;;;;;;0.63;0.30;;;14.80;99.90;;;;;;4249504;27;20043;-59
2024/01/24 04:08:34;;;;;;;0.55;0.32;;;14.80;99.90;;;;;;4250780;27;20044;-57
2024/01/24 04:10:36;;;;;;;0.10;0.10;;;14.80;99.90;;;;;;4233054;28;20089;-59
2024/01/24 04:12:38;;;;;;;0.32;0.13;;;14.80;99.90;;;;;;4250378;27;20137;-58
2024/01/24 04:14:40;;;;;;;0.13;0.10;;;14.80;99.90;;;;;;4250366;27;20525;-59
2024/01/24 04:16:42;;;;;;;0.57;0.30;;;14.80;99.90;;;;;;4250223;27;20050;-59
2024/01/24 04:18:46;;;;;;;0.17;0.17;;;14.80;99.90;;;;;;4249879;27;20043;-59
2024/01/24 04:20:48;;;;;;;0.40;0.20;;;14.80;99.90;;;;;;4249299;27;20042;-65
2024/01/24 04:22:50;;;;;;;0.28;0.10;;;14.80;99.90;;;;;;4249734;27;20065;-59
2024/01/24 04:24:52;;;;;;;0.43;0.35;;;14.80;99.90;;;;;;4253099;27;20658;-59
2024/01/24 04:26:57;;;;;;;0.60;0.40;;;14.90;99.90;;;;;;4267001;27;20450;-59
2024/01/24 04:28:59;;;;;;;0.40;0.20;;;14.90;99.90;;;;;;4267002;27;20500;-59
2024/01/24 04:31:01;;;;;;;0.57;0.20;;;14.90;99.90;;;;;;4266750;27;20110;-59
2024/01/24 04:33:04;;;;;;;1.13;0.40;;;14.90;99.90;;;;;;4266628;27;20126;-58
2024/01/24 04:35:08;;;;;;;0.77;0.15;;;14.90;99.90;;;;;;4257719;27;20547;-55
2024/01/24 04:37:10;;;;;;;0.00;0.00;;;14.90;99.90;;;;;;4249550;27;20047;-56
2024/01/24 04:39:12;;;;;;;0.60;0.17;;;14.90;99.90;;;;;;4249651;27;20122;-55
2024/01/24 04:41:14;;;;;;;1.05;0.10;;;14.90;99.90;;;;;;4249303;27;20050;-58
2024/01/24 04:43:16;;;;;;;0.40;0.20;;;14.90;99.90;;;;;;4249510;27;20088;-58
2024/01/24 04:45:18;;;;;;;0.10;0.10;;;14.90;99.90;;;;;;4249296;27;20043;-57
2024/01/24 04:47:21;;;;;;;1.27;0.40;;;14.90;99.90;;;;;;4249252;27;20055;-59
2024/01/24 04:49:23;;;;;;;0.57;0.20;;;14.90;99.90;;;;;;4249216;27;20482;-58
2024/01/24 04:51:42;;;;;;;0.25;0.20;;;14.90;99.90;;;;;;4249441;27;20067;-57
2024/01/24 04:53:44;;;;;;;0.75;0.20;;;14.90;99.90;;;;;;4231267;28;20050;-57
2024/01/24 04:55:46;;;;;;;0.63;0.25;;;14.90;99.90;;;;;;4249004;27;20512;-57
2024/01/24 04:57:48;;;;;;;0.73;0.30;;;14.90;99.90;;;;;;4249160;27;20409;-58
2024/01/24 04:59:51;;;;;;;0.50;0.10;;;14.80;99.90;;;;;;4249091;27;20043;-58
2024/01/24 05:01:57;;;;;;;0.65;0.28;;;14.90;99.90;;;;;;4249142;27;20035;-58
2024/01/24 05:03:59;;;;;;;2.25;0.22;;;14.90;99.90;;;;;;4248785;27;20039;-57
2024/01/24 05:06:03;;;;;;;0.38;0.05;;;14.80;99.90;;;;;;4249324;27;20047;-59
2024/01/24 05:08:16;;;;;;;0.30;0.20;;;14.80;99.90;;;;;;4248946;27;20082;-59
2024/01/24 05:10:18;;;;;;;0.32;0.25;;;14.80;99.90;;;;;;4249089;27;20047;-58
2024/01/24 05:12:20;;;;;;;0.82;0.25;;;14.80;99.90;;;;;;4248403;27;20074;-58
2024/01/24 05:14:22;;;;;;;1.55;0.20;;;14.80;99.90;;;;;;4247938;28;20397;-59
2024/01/24 05:16:24;;;;;;;0.10;0.10;;;14.80;99.90;;;;;;4248092;28;20130;-62
2024/01/24 05:18:26;;;;;;;0.45;0.20;;;14.80;99.90;;;;;;4228623;28;20078;-59
2024/01/24 05:20:29;;;;;;;0.65;0.30;;;14.80;99.90;;;;;;4229860;28;20043;-59
2024/01/24 05:22:31;;;;;;;0.95;0.30;;;14.80;99.90;;;;;;4248136;28;20054;-58
2024/01/24 05:24:34;;;;;;;0.47;0.15;;;14.80;99.90;;;;;;4248600;27;20070;-59
2024/01/24 05:26:36;;;;;;;0.20;0.20;;;14.80;99.90;;;;;;4265324;27;20050;-58
2024/01/24 05:28:40;;;;;;;0.88;0.30;;;14.80;99.90;;;;;;4265180;27;20039;-58
2024/01/24 05:30:42;;;;;;;0.90;0.30;;;14.80;99.90;;;;;;4265052;27;20042;-59
2024/01/24 05:32:44;;;;;;;2.42;0.30;;;14.80;99.90;;;;;;4264763;27;20409;-59
2024/01/24 05:34:47;;;;;;;2.58;0.25;;;14.80;99.90;;;;;;4259054;27;20482;-58
2024/01/24 05:36:49;;;;;;;0.47;0.20;;;14.80;99.90;;;;;;4247929;28;20043;-58
2024/01/24 05:38:51;;;;;;;0.75;0.30;;;14.80;99.90;;;;;;4247944;28;20467;-60
2024/01/24 05:40:55;;;;;;;0.40;0.20;;;14.80;99.90;;;;;;4247920;28;20409;-58
2024/01/24 05:42:57;;;;;;;1.00;0.38;;;14.80;99.90;;;;;;4247834;28;20051;-58
2024/01/24 05:44:59;;;;;;;1.60;0.30;;;14.80;99.90;;;;;;4247849;28;20047;-59
2024/01/24 05:47:01;;;;;;;0.73;0.20;;;14.80;99.90;;;;;;4247990;28;20456;-58
2024/01/24 05:49:03;;;;;;;0.90;0.50;;;14.80;99.90;;;;;;4247405;28;20047;-59
2024/01/24 05:51:05;;;;;;;3.03;0.50;;;14.70;99.90;;;;;;4248532;28;20043;-60
2024/01/24 05:53:07;;;;;;;1.70;0.50;;;14.60;99.90;;;;;;4248693;28;20043;-58
2024/01/24 05:55:11;;;;;;;2.00;0.55;;;14.50;99.90;;;;;;4247567;28;20039;-58
2024/01/24 05:57:15;;;;;;;2.20;0.90;;;14.40;99.90;;;;;;4247765;28;20055;-58
2024/01/24 05:59:18;;;;;;;2.60;0.40;;;14.40;99.90;;;;;;4247746;28;20047;-58
2024/01/24 06:01:21;;;;;;;1.67;0.60;;;14.40;99.90;;;;;;4247517;28;20417;-59
2024/01/24 06:03:23;;;;;;;3.08;1.00;;;14.30;99.90;;;;;;4247403;28;20047;-58
2024/01/24 06:05:26;;;;;;;0.98;0.30;;;14.30;99.90;;;;;;4247513;28;20436;-58
2024/01/24 06:07:28;;;;;;;1.88;0.45;;;14.30;99.90;;;;;;4247529;28;20039;-59
2024/01/24 06:09:30;;;;;;;0.90;0.40;;;14.30;99.90;;;;;;4247424;28;20118;-60
2024/01/24 06:11:32;;;;;;;1.55;0.60;;;14.40;99.90;;;;;;4247142;27;20043;-60
2024/01/24 06:13:36;;;;;;;1.20;0.60;;;14.30;99.90;;;;;;4248255;27;20054;-59
2024/01/24 06:15:38;;;;;;;1.85;0.40;;;14.40;99.90;;;;;;4248383;27;20059;-60
2024/01/24 06:17:40;;;;;;;2.25;0.60;;;14.20;99.90;;;;;;4247956;27;20039;-58
2024/01/24 06:19:43;;;;;;;1.48;0.50;;;14.30;99.90;;;;;;4248176;27;20051;-58
2024/01/24 06:21:45;;;;;;;0.90;0.38;;;14.30;99.90;;;;;;4247829;27;20410;-59
2024/01/24 06:23:47;;;;;;;0.35;0.30;;;14.30;99.90;;;;;;4248226;27;20043;-58
2024/01/24 06:25:49;;;;;;;0.28;0.28;;;14.30;99.90;;;;;;4259257;27;20409;-58
2024/01/24 06:27:52;;;;;;;1.02;0.73;;;14.20;99.90;;;;;;4264972;27;20051;-58
2024/01/24 06:29:56;;;;;;;1.02;0.30;;;14.10;99.90;;;;;;4264997;27;20125;-58
2024/01/24 06:32:18;;;;;;;0.90;0.50;;;14.10;99.90;;;;;;4264664;27;20047;-59
2024/01/24 06:34:20;;;;;;;3.35;0.70;;;14.10;99.90;;;;;;4263206;27;20419;-59
2024/01/24 06:36:22;;;;;;;4.80;0.98;;;14.00;99.90;;;;;;4248304;27;20047;-58
2024/01/24 06:38:25;;;;;;;2.97;0.73;;;14.00;99.90;;;;;;4248924;27;20100;-60
2024/01/24 06:40:27;;;;;;;4.18;0.98;;;14.00;99.90;;;;;;4248984;27;20054;-65
2024/01/24 06:42:30;;;;;;;3.25;0.93;;;14.00;99.90;;;;;;4230653;28;20040;-59
2024/01/24 06:44:32;;;;;;;5.75;1.15;;;14.00;99.90;;;;;;4248652;28;20047;-61
2024/01/24 06:46:42;;;;;;;4.63;0.65;;;13.90;99.90;;;;;;4248388;28;20050;-63
2024/01/24 06:48:44;;;;;;;4.28;0.80;;;13.90;99.90;;;;;;4248971;28;20127;-62
2024/01/24 06:50:46;;;;;;;3.17;0.68;;;14.00;99.90;;;;;;4248719;28;20066;-63
2024/01/24 06:52:48;;;;;;;3.08;0.85;;;13.90;99.90;;;;;;4248640;28;20042;-59
2024/01/24 06:54:50;;;;;;;3.30;0.90;;;14.00;99.90;;;;;;4248958;28;20047;-58
2024/01/24 06:56:53;;;;;;;2.17;0.65;;;14.00;99.90;;;;;;4248499;28;20050;-58
2024/01/24 06:58:55;;;;;;;2.97;0.80;;;14.10;99.90;;;;;;4248594;28;20125;-59
2024/01/24 07:00:57;;;;;;;4.07;0.93;;;14.10;99.90;;;;;;4229872;28;20055;-58
2024/01/24 07:03:01;;;;;;;7.18;1.58;;;14.00;99.90;;;;;;4248224;28;20047;-58
2024/01/24 07:05:03;;;;;;;4.05;1.00;;;14.10;99.90;;;;;;4248059;28;20417;-58
2024/01/24 07:07:06;;;;;;;12.23;1.95;;;14.00;99.90;;;;;;4247820;28;20092;-60
2024/01/24 07:09:08;;;;;;;5.55;1.48;;;14.00;99.90;;;;;;4247902;28;20131;-58
2024/01/24 07:11:10;;;;;;;8.02;1.85;;;14.00;99.90;;;;;;4247372;28;20122;-56
2024/01/24 07:13:12;;;;;;;8.05;1.33;;;13.90;99.90;;;;;;4247523;28;20082;-58
2024/01/24 07:15:15;;;;;;;6.35;1.25;;;13.90;99.90;;;;;;4247591;28;20047;-58
2024/01/24 07:17:18;;;;;;;6.43;1.50;;;13.90;99.90;;;;;;4248496;28;20126;-59
2024/01/24 07:19:22;;;;;;;6.05;1.70;;;13.90;99.90;;;;;;4248653;28;20428;-61
2024/01/24 07:21:25;;;;;;;7.97;1.70;;;13.90;99.90;;;;;;4247652;28;20054;-59
2024/01/24 07:23:27;;;;;;;11.40;2.00;;;13.90;99.90;;;;;;4247509;28;20509;-59
2024/01/24 07:25:29;;;;;;;8.90;2.03;;;13.80;99.90;;;;;;4256090;27;20047;-58
2024/01/24 07:27:31;;;;;;;8.93;1.73;;;13.80;99.90;;;;;;4264372;27;20047;-58
2024/01/24 07:29:35;;;;;;;9.35;2.25;;;13.80;99.90;;;;;;4264057;27;20050;-58
2024/01/24 07:31:40;;;;;;;11.38;2.45;;;13.80;99.90;;;;;;4264931;27;20075;-59
2024/01/24 07:33:42;;;;;;;8.32;2.08;;;13.70;99.90;;;;;;4264605;27;20482;-58
2024/01/24 07:35:45;;;;;;;9.85;1.83;;;13.70;99.90;;;;;;4250262;27;20044;-59
2024/01/24 07:37:47;;;;;;;13.30;2.28;;;13.70;99.90;;;;;;4247421;28;20072;-57
2024/01/24 07:39:50;;;;;;;10.68;2.53;;;13.70;99.90;;;;;;4247297;28;20432;-59
2024/01/24 07:41:52;;;;;;;11.68;2.00;;;13.70;99.90;;;;;;4249027;27;20134;-59
2024/01/24 07:43:54;;;;;;;7.93;2.13;;;13.70;99.90;;;;;;4250671;27;20049;-60
2024/01/24 07:45:56;;;;;;;8.00;1.85;;;13.70;99.90;;;;;;4251545;27;20064;-59
2024/01/24 07:47:59;;;;;;;4.97;1.63;;;13.70;99.90;;;;;;4250770;27;20086;-56
2024/01/24 07:50:03;;;;;;;4.88;1.67;;;13.70;99.90;;;;;;4250394;27;20047;-57
2024/01/24 07:52:07;;;;;;;10.33;1.97;;;13.60;99.90;;;;;;4251040;27;20386;-61
2024/01/24 07:54:09;;;;;;;7.03;1.88;;;13.70;99.90;;;;;;4250637;27;20099;-58
2024/01/24 07:56:12;;;;;;;7.95;1.95;;;13.70;99.90;;;;;;4250632;27;20148;-60
2024/01/24 07:58:27;;;;;;;12.50;2.42;;;13.70;99.90;;;;;;4250485;27;20130;-59
2024/01/24 08:00:30;;;;;;;18.08;2.95;;;13.60;99.90;;;;;;4250407;27;20062;-56
2024/01/24 08:02:33;;;;;;;10.40;2.97;;;13.70;99.90;;;;;;4250130;27;20043;-59
2024/01/24 08:04:35;;;;;;;14.90;3.42;;;13.60;99.90;;;;;;4250287;27;20118;-59
2024/01/24 08:06:37;;;;;;;24.35;5.15;;;13.60;99.90;;;;;;4250085;27;20039;-58
2024/01/24 08:08:41;;;;;;;12.30;3.00;;;13.60;99.90;;;;;;4250598;27;20050;-56
2024/01/24 08:10:44;;;;;;;12.38;3.17;;;13.70;99.90;;;;;;4250375;27;20462;-58
2024/01/24 08:12:46;;;;;;;19.80;3.30;;;13.60;99.90;;;;;;4249694;27;20074;-60
2024/01/24 08:14:48;;;;;;;17.17;3.53;;;13.60;99.90;;;;;;4250216;27;20054;-56
2024/01/24 08:17:01;;;;;;;16.42;3.53;;;13.60;99.90;;;;;;4250768;27;20061;-58
2024/01/24 08:19:03;;;;;;;17.38;2.83;;;13.60;99.90;;;;;;4251392;27;20047;-59
2024/01/24 08:21:07;;;;;;;13.55;3.20;;;13.70;99.90;;;;;;4251163;27;20070;-57
2024/01/24 08:23:09;;;;;;;14.63;3.42;;;13.60;99.90;;;;;;4251584;27;20488;-63
2024/01/24 08:25:13;;;;;;;13.75;2.78;;;13.70;99.90;;;;;;4257077;27;20034;-58
2024/01/24 08:27:17;;;;;;;13.80;3.22;;;13.60;99.90;;;;;;4266668;27;20051;-59
2024/01/24 08:29:21;;;;;;;14.20;2.95;;;13.70;99.90;;;;;;4266994;27;20053;-62
2024/01/24 08:31:33;;;;;;;12.85;2.95;;;13.80;99.90;;;;;;4267085;27;20046;-58
2024/01/24 08:33:36;;;;;;;13.65;3.55;;;13.80;99.90;;;;;;4266768;27;20459;-60
2024/01/24 08:35:39;;;;;;;21.48;4.00;;;13.80;99.90;;;;;;4253261;27;20051;-58
2024/01/24 08:37:42;;;;;;;17.75;5.30;;;13.70;99.90;;;;;;4249585;27;20401;-58
2024/01/24 08:39:44;;;;;;;10.50;2.85;;;13.60;99.90;;;;;;4249521;27;20051;-58
2024/01/24 08:41:48;;;;;;;15.43;3.45;;;13.70;99.90;;;;;;4249214;27;20047;-60
2024/01/24 08:43:52;;;;;;;11.25;3.25;;;13.70;99.90;;;;;;4249406;27;20127;-56
2024/01/24 08:45:54;;;;;;;14.85;3.60;;;13.70;99.90;;;;;;4250457;27;20039;-56
2024/01/24 08:47:56;;;;;;;19.40;4.65;;;13.70;99.90;;;;;;4250125;27;20063;-63
2024/01/24 08:49:58;;;;;;;25.65;5.03;;;13.70;99.90;;;;;;4250583;27;20043;-58
2024/01/24 08:52:00;;;;;;;18.45;3.83;;;13.80;99.90;;;;;;4249516;27;20489;-57
2024/01/24 08:54:03;;;;;;;18.30;4.00;;;14.10;99.90;;;;;;4248495;27;20055;-58
2024/01/24 08:56:05;;;;;;;14.90;3.58;;;14.20;99.90;;;;;;4249608;27;20075;-57
2024/01/24 08:58:09;;;;;;;27.50;5.97;;;14.30;99.90;;;;;;4249571;27;20047;-59
2024/01/24 09:00:13;;;;;;;23.30;4.03;;;14.20;99.90;;;;;;4249453;27;20043;-60
2024/01/24 09:02:15;;;;;;;25.13;5.15;;;14.00;99.90;;;;;;4231155;28;20135;-58
2024/01/24 09:04:17;;;;;;;24.63;4.97;;;13.90;99.90;;;;;;4231532;28;20116;-57
2024/01/24 09:06:21;;;;;;;30.17;5.78;;;13.90;99.90;;;;;;4247805;27;20389;-61
2024/01/24 09:08:25;;;;;;;23.40;5.53;;;14.10;99.90;;;;;;4249895;27;20058;-58
2024/01/24 09:10:27;;;;;;;24.20;5.90;;;14.20;99.90;;;;;;4250509;27;20470;-61
2024/01/24 09:12:30;;;;;;;23.33;5.30;;;14.20;99.90;;;;;;4250918;27;20501;-57
2024/01/24 09:14:34;;;;;;;19.15;5.30;;;14.30;99.90;;;;;;4251209;27;20043;-60
2024/01/24 09:16:36;;;;;;;28.35;5.57;;;14.60;99.90;;;;;;4249945;27;20074;-59
2024/01/24 09:18:39;;;;;;;27.65;5.90;;;14.60;99.90;;;;;;4249647;27;20073;-56
2024/01/24 09:20:42;;;;;;;16.38;5.43;;;14.70;99.90;;;;;;4249551;27;20047;-57
2024/01/24 09:22:45;;;;;;;22.98;6.88;;;14.90;99.90;;;;;;4249174;27;20045;-59
2024/01/24 09:24:48;;;;;;;41.67;12.50;;;14.80;99.90;;;;;;4246969;27;20478;-58
2024/01/24 09:26:52;;;;;;;35.55;11.05;;;14.80;99.90;;;;;;4239722;27;20504;-58
2024/01/24 09:28:54;;;;;;;39.13;12.63;;;14.60;99.90;;;;;;4234645;27;20044;-57
2024/01/24 09:30:57;;;;;;;49.45;18.35;;;14.90;99.90;;;;;;4231952;28;20043;-59
2024/01/24 09:32:59;;;;;;;46.28;20.25;;;14.70;99.90;;;;;;4233883;27;20092;-57
2024/01/24 09:35:02;;;;;;;53.53;20.58;;;14.70;99.90;;;;;;4245566;27;20043;-59
2024/01/24 09:37:04;;;;;;;40.10;16.30;;;14.90;99.90;;;;;;4244890;27;20108;-57
2024/01/24 09:39:08;;;;;;;30.45;11.55;;;15.00;99.90;;;;;;4247891;27;20043;-58
2024/01/24 09:41:16;;;;;;;39.85;11.25;;;15.10;99.90;;;;;;4248556;27;20546;-61
2024/01/24 09:43:21;;;;;;;43.78;12.48;;;15.10;99.90;;;;;;4241441;27;20039;-56
2024/01/24 09:45:23;;;;;;;40.50;9.23;;;15.20;99.90;;;;;;4248587;27;20046;-57
2024/01/24 09:47:27;;;;;;;32.00;9.43;;;15.00;99.90;;;;;;4229856;28;20160;-59
2024/01/24 09:49:31;;;;;;;31.00;8.95;;;15.10;99.90;;;;;;4241890;27;20108;-60
2024/01/24 09:51:34;;;;;;;25.60;7.20;;;15.00;99.90;;;;;;4237905;27;20084;-58
2024/01/24 09:53:39;;;;;;;34.85;8.30;;;15.10;99.90;;;;;;4245665;27;20071;-57
2024/01/24 09:55:41;;;;;;;25.83;7.67;;;15.00;99.90;;;;;;4244147;27;20039;-58
2024/01/24 09:57:45;;;;;;;30.95;8.57;;;15.00;99.90;;;;;;4242889;27;20544;-58
2024/01/24 09:59:47;;;;;;;35.70;8.75;;;15.10;99.90;;;;;;4247645;27;20043;-58
2024/01/24 10:01:49;;;;;;;28.33;7.85;;;15.10;99.80;;;;;;4248029;27;20451;-58
2024/01/24 10:03:54;;;;;;;32.83;7.93;;;15.20;99.90;;;;;;4247226;27;20050;-60
2024/01/24 10:05:58;;;;;;;33.35;7.70;;;15.30;99.90;;;;;;4244992;27;20051;-59
2024/01/24 10:08:00;;;;;;;34.78;8.20;;;15.40;99.90;;;;;;4245619;27;20398;-58
2024/01/24 10:10:07;;;;;;;36.17;7.50;;;15.40;99.60;;;;;;4245883;27;20204;-59
2024/01/24 10:12:10;;;;;;;29.58;7.65;;;15.40;99.70;;;;;;4245065;27;20058;-59
2024/01/24 10:14:12;;;;;;;30.48;7.28;;;15.30;99.40;;;;;;4240686;27;20406;-58
2024/01/24 10:16:14;;;;;;;31.08;6.85;;;15.40;99.10;;;;;;4246149;27;20075;-59
2024/01/24 10:18:17;;;;;;;40.05;8.13;;;15.30;99.50;;;;;;4247176;27;20043;-57
2024/01/24 10:20:21;;;;;;;34.22;7.45;;;15.30;98.70;;;;;;4245742;27;20054;-57
2024/01/24 10:22:23;;;;;;;33.22;7.38;;;15.30;98.90;;;;;;4246944;27;20090;-58
2024/01/24 10:24:27;;;;;;;30.92;7.20;;;15.40;98.80;;;;;;4246508;27;20047;-58
2024/01/24 10:26:30;;;;;;;34.78;8.52;;;15.30;98.60;;;;;;4244232;27;20047;-58
2024/01/24 10:28:32;;;;;;;38.47;8.60;;;15.30;98.80;;;;;;4244577;27;20058;-56
2024/01/24 10:30:35;;;;;;;32.63;8.35;;;15.30;99.40;;;;;;4245270;27;20126;-59
2024/01/24 10:32:38;;;;;;;36.88;7.65;;;15.20;98.60;;;;;;4246148;27;20055;-59
2024/01/24 10:34:40;;;;;;;24.92;5.97;;;15.00;98.70;;;;;;4233763;27;20182;-58
2024/01/24 10:36:44;;;;;;;33.97;7.32;;;15.10;99.20;;;;;;4246253;27;20111;-57